Notice: Undefined index: language in /home/u908952976/domains/airgaviota-va.com/public_html/vam/index.php on line 25
AirGaviota-VA

... VIRTUAL FLIGHT...OUR PASSION



 FLIGHT DETAILS
Pilot: GVT462 Peter Voksan Aircraft: REDEYES - ANTONOV AN-2 (32V_64B) AN-2-GAVIOTAAIRVAAEROTAXI Distance: 116NM
Departure MUSL Arrival MUCA Duration 01:09
Validation Validated Type Charter Tail Number GV-AET
ZFW 4085 Block Fuel/Initial FOB 114/0 Flight Fuel 100
Passengers 20 Cargo 0 Alternate MUCC
Departure Time 1800 Cruise Speed 110 Flight Level 4500
Flight Type VFR Aircraft Type AN2 Weight Unit Kg
Date 17-09-2020 Pilot Comments Network IVAO
Crashed No Validator Comments Flight Rating -30

 ROUTE
ROUTE CIRCUITO NORTE
REMARKS AIRGAVIOTA AEROTAXI VFR TOUR LEG13.
 FLIGHT FAILURES
Crashed OK Beacon off & Engine Running Fail KIAS Above 250 below 10000 FT OK
Lights OFF below 10000 FT OK Lights ON above 10000 FT OK Stall OK
Overspeed OK Flight paused OK Refueling OK
Slew detected OK Taxi & Taxi lights off OK Take off & lights off OK
Landing & lights off OK Landed in not planned airport OK Taxi Speed Fail
Wrong altimeter in Take off OK Wrong altimeter in Landing OK
 LANDING ANALYSIS
Landing wind 63º/10 kt Landing heading 102
Landing VS: -63.05 ft/min Landing IAS: 66.31 kt
Landing Force G 1.2 G Landing Bank -0.8
Landing Pitch -1.7 Landing Flaps 0
Navigation Lights ON Landing Lights ON
Beacon Lights OFF Strobe Lights OFF
 FLIGHT MAP
 ALTITUDE CHART
 FLIGHT FINANCIAL REPORT
 MAIN EVENTS
DATE EVENTIASALTITUDE
2020-09-17 19:49:59 SIM ACARS version 1.4.1223
2020-09-17 19:49:59 BOARDING223
2020-09-17 19:52:21 STARTING ENGINE 1 223
2020-09-17 19:52:21 BEACON LIGHT OFF & ENGINE ON223
2020-09-17 19:53:46 FLAPS EXTENSION 2 % 123
2020-09-17 19:53:46 FLAPS EXTENSION 4 % 123
2020-09-17 19:53:47 FLAPS EXTENSION 6 % 123
2020-09-17 19:53:47 FLAPS EXTENSION 8 % 123
2020-09-17 19:53:48 FLAPS EXTENSION 10 % 123
2020-09-17 19:53:48 FLAPS EXTENSION 12 % 123
2020-09-17 19:53:48 FLAPS EXTENSION 13 % 123
2020-09-17 19:53:48 FLAPS EXTENSION 16 % 123
2020-09-17 19:53:48 FLAPS EXTENSION 18 % 123
2020-09-17 19:53:48 FLAPS EXTENSION 19 % 123
2020-09-17 19:53:49 FLAPS EXTENSION 21 % 123
2020-09-17 19:53:49 FLAPS EXTENSION 23 % 123
2020-09-17 19:53:49 FLAPS EXTENSION 25 % 123
2020-09-17 19:53:49 FLAPS EXTENSION 27 % 123
2020-09-17 19:53:49 FLAPS EXTENSION 29 % 123
2020-09-17 19:53:49 FLAPS EXTENSION 30 % 123
2020-09-17 19:53:49 FLAPS EXTENSION 33 % 123
2020-09-17 19:53:50 FLAPS EXTENSION 34 % 123
2020-09-17 19:53:50 FLAPS EXTENSION 36 % 123
2020-09-17 19:53:50 FLAPS EXTENSION 38 % 123
2020-09-17 19:53:50 FLAPS EXTENSION 38 % 123
2020-09-17 19:56:39 TAXI TO THE RWY 1023
2020-09-17 19:58:01 FLAPS EXTENSION 37 % 023
2020-09-17 19:58:01 FLAPS EXTENSION 35 % 023
2020-09-17 19:58:02 FLAPS EXTENSION 37 % 023
2020-09-17 19:58:02 FLAPS EXTENSION 38 % 023
2020-09-17 19:58:03 FLAPS EXTENSION 36 % 023
2020-09-17 19:58:03 FLAPS EXTENSION 36 % 023
2020-09-17 19:58:09 FLAPS EXTENSION 35 % 023
2020-09-17 19:58:09 FLAPS EXTENSION 34 % 023
2020-09-17 19:58:10 FLAPS EXTENSION 35 % 023
2020-09-17 19:58:10 FLAPS EXTENSION 36 % 023
2020-09-17 19:59:37 ROLLING FOR TAKE OFF4123
2020-09-17 19:59:39 TAKE OFF4623
2020-09-17 19:59:40 LANDING4623
2020-09-17 19:59:50 TAKE OFF5373
2020-09-17 20:00:13 FLAPS EXTENSION 35 % 52227
2020-09-17 20:00:13 FLAPS EXTENSION 33 % 53228
2020-09-17 20:00:13 FLAPS EXTENSION 31 % 53228
2020-09-17 20:00:13 FLAPS EXTENSION 29 % 52229
2020-09-17 20:00:13 FLAPS EXTENSION 27 % 52230
2020-09-17 20:00:14 FLAPS EXTENSION 25 % 52230
2020-09-17 20:00:14 FLAPS EXTENSION 23 % 52231
2020-09-17 20:00:14 FLAPS EXTENSION 22 % 52232
2020-09-17 20:00:16 FLAPS EXTENSION 20 % 54239
2020-09-17 20:00:16 FLAPS EXTENSION 19 % 54240
2020-09-17 20:00:16 FLAPS EXTENSION 17 % 53241
2020-09-17 20:00:16 FLAPS EXTENSION 15 % 53242
2020-09-17 20:00:16 FLAPS EXTENSION 13 % 53243
2020-09-17 20:00:16 FLAPS EXTENSION 12 % 54244
2020-09-17 20:00:16 FLAPS EXTENSION 10 % 54245
2020-09-17 20:00:17 FLAPS EXTENSION 7 % 54246
2020-09-17 20:00:17 FLAPS EXTENSION 6 % 53247
2020-09-17 20:00:17 FLAPS EXTENSION 4 % 53248
2020-09-17 20:00:17 FLAPS EXTENSION 3 % 53249
2020-09-17 20:00:17 FLAPS EXTENSION 0 % 54250
2020-09-17 20:01:00 CRUISE64347
2020-09-17 20:03:40 CLIMBING62551
2020-09-17 20:04:20 CRUISE61662
2020-09-17 20:05:40 CLIMBING63874
2020-09-17 20:06:10 CRUISE64964
2020-09-17 20:07:10 CLIMBING691109
2020-09-17 20:08:20 CRUISE731358
2020-09-17 20:10:00 DESCEND951428
2020-09-17 20:11:00 CRUISE1071278
2020-09-17 20:11:50 DESCEND1121131
2020-09-17 20:12:50 CRUISE1061125
2020-09-17 20:14:50 DESCEND109948
2020-09-17 20:16:00 CRUISE111788
2020-09-17 20:26:50 CLIMBING90649
2020-09-17 20:28:00 CRUISE96659
2020-09-17 20:32:10 DESCEND102896
2020-09-17 20:32:50 CLIMBING831098
2020-09-17 20:34:00 DESCEND941158
2020-09-17 20:34:50 CRUISE941230
2020-09-17 20:35:30 CLIMBING851386
2020-09-17 20:36:00 CRUISE901408
2020-09-17 20:38:30 DESCEND1051389
2020-09-17 20:39:00 CRUISE1061347
2020-09-17 20:39:40 DESCEND1151108
2020-09-17 20:40:20 CRUISE1101023
2020-09-17 20:42:30 DESCEND114747
2020-09-17 20:44:10 CRUISE98814
2020-09-17 20:46:40 DESCEND117630
2020-09-17 20:47:10 CRUISE108579
2020-09-17 20:49:00 CLIMBING98660
2020-09-17 20:50:20 CRUISE91884
2020-09-17 20:56:20 CLIMBING991238
2020-09-17 20:56:50 CRUISE961287
2020-09-17 20:59:30 DESCEND1121281
2020-09-17 21:00:30 CRUISE1081171
2020-09-17 21:02:10 CLIMBING991286
2020-09-17 21:02:40 CRUISE921407
2020-09-17 21:06:10 CLIMBING831705
2020-09-17 21:07:22 FLAPS EXTENSION 2 % 671546
2020-09-17 21:07:22 FLAPS EXTENSION 4 % 671545
2020-09-17 21:07:23 FLAPS EXTENSION 6 % 661543
2020-09-17 21:07:23 FLAPS EXTENSION 8 % 661542
2020-09-17 21:07:23 FLAPS EXTENSION 11 % 661540
2020-09-17 21:07:23 FLAPS EXTENSION 13 % 661539
2020-09-17 21:07:24 FLAPS EXTENSION 17 % 661536
2020-09-17 21:07:24 FLAPS EXTENSION 20 % 661535
2020-09-17 21:07:24 FLAPS EXTENSION 23 % 671533
2020-09-17 21:07:24 FLAPS EXTENSION 27 % 671531
2020-09-17 21:07:25 FLAPS EXTENSION 30 % 671530
2020-09-17 21:07:25 FLAPS EXTENSION 33 % 671528
2020-09-17 21:07:25 FLAPS EXTENSION 35 % 671527
2020-09-17 21:07:29 FLAPS EXTENSION 37 % 621496
2020-09-17 21:07:29 FLAPS EXTENSION 40 % 621495
2020-09-17 21:07:30 FLAPS EXTENSION 42 % 611494
2020-09-17 21:07:30 FLAPS EXTENSION 45 % 611492
2020-09-17 21:07:30 FLAPS EXTENSION 47 % 601491
2020-09-17 21:07:30 FLAPS EXTENSION 50 % 601490
2020-09-17 21:07:31 FLAPS EXTENSION 53 % 601488
2020-09-17 21:07:31 FLAPS EXTENSION 56 % 601487
2020-09-17 21:07:31 FLAPS EXTENSION 59 % 601485
2020-09-17 21:07:31 FLAPS EXTENSION 62 % 601484
2020-09-17 21:07:31 FLAPS EXTENSION 65 % 601483
2020-09-17 21:07:32 FLAPS EXTENSION 68 % 591483
2020-09-17 21:07:32 FLAPS EXTENSION 70 % 591482
2020-09-17 21:07:32 FLAPS EXTENSION 71 % 591482
2020-09-17 21:07:54 FLAPS EXTENSION 72 % 561434
2020-09-17 21:07:54 FLAPS EXTENSION 75 % 561434
2020-09-17 21:07:55 FLAPS EXTENSION 78 % 561433
2020-09-17 21:07:55 FLAPS EXTENSION 80 % 561433
2020-09-17 21:07:55 FLAPS EXTENSION 83 % 561432
2020-09-17 21:07:55 FLAPS EXTENSION 86 % 561432
2020-09-17 21:07:55 FLAPS EXTENSION 89 % 571431
2020-09-17 21:07:56 FLAPS EXTENSION 90 % 581431
2020-09-17 21:07:56 FLAPS EXTENSION 93 % 581431
2020-09-17 21:07:56 FLAPS EXTENSION 96 % 591431
2020-09-17 21:07:56 FLAPS EXTENSION 99 % 601431
2020-09-17 21:07:56 FLAPS EXTENSION 100 % 581431
2020-09-17 21:07:59 FLAPS EXTENSION 99 % 581440
2020-09-17 21:08:00 FLAPS EXTENSION 96 % 581441
2020-09-17 21:08:00 FLAPS EXTENSION 96 % 581441
2020-09-17 21:08:00 FLAPS EXTENSION 99 % 581442
2020-09-17 21:08:00 FLAPS EXTENSION 100 % 571442
2020-09-17 21:08:50 DESCEND591318
2020-09-17 21:10:20 CRUISE57361
2020-09-17 21:10:43 LANDING66345
2020-09-17 21:11:09 TAXI TO THE GATE20344
2020-09-17 21:11:09 TAXI SPEED ABOVE 25 KTS20344
2020-09-17 21:11:13 FLAPS EXTENSION 98 % 14344
2020-09-17 21:11:13 FLAPS EXTENSION 96 % 14344
2020-09-17 21:11:14 FLAPS EXTENSION 93 % 14344
2020-09-17 21:11:14 FLAPS EXTENSION 91 % 14344
2020-09-17 21:11:14 FLAPS EXTENSION 88 % 14344
2020-09-17 21:11:14 FLAPS EXTENSION 86 % 14344
2020-09-17 21:11:14 FLAPS EXTENSION 84 % 14344
2020-09-17 21:11:15 FLAPS EXTENSION 80 % 14344
2020-09-17 21:11:15 FLAPS EXTENSION 78 % 14344
2020-09-17 21:11:15 FLAPS EXTENSION 76 % 14344
2020-09-17 21:11:15 FLAPS EXTENSION 73 % 14344
2020-09-17 21:11:15 FLAPS EXTENSION 70 % 14344
2020-09-17 21:11:16 FLAPS EXTENSION 68 % 14344
2020-09-17 21:11:16 FLAPS EXTENSION 66 % 14344
2020-09-17 21:11:16 FLAPS EXTENSION 63 % 14344
2020-09-17 21:11:16 FLAPS EXTENSION 61 % 13344
2020-09-17 21:11:16 FLAPS EXTENSION 58 % 14344
2020-09-17 21:11:17 FLAPS EXTENSION 55 % 13344
2020-09-17 21:11:17 FLAPS EXTENSION 52 % 13344
2020-09-17 21:11:17 FLAPS EXTENSION 50 % 13344
2020-09-17 21:11:17 FLAPS EXTENSION 48 % 13344
2020-09-17 21:11:18 FLAPS EXTENSION 44 % 13344
2020-09-17 21:11:18 FLAPS EXTENSION 41 % 13344
2020-09-17 21:11:18 FLAPS EXTENSION 39 % 13344
2020-09-17 21:11:18 FLAPS EXTENSION 36 % 13344
2020-09-17 21:11:18 FLAPS EXTENSION 33 % 13344
2020-09-17 21:11:19 FLAPS EXTENSION 31 % 12344
2020-09-17 21:11:19 FLAPS EXTENSION 29 % 12344
2020-09-17 21:11:19 FLAPS EXTENSION 26 % 12344
2020-09-17 21:11:19 FLAPS EXTENSION 24 % 12344
2020-09-17 21:11:19 FLAPS EXTENSION 21 % 12344
2020-09-17 21:11:20 FLAPS EXTENSION 18 % 12344
2020-09-17 21:11:20 FLAPS EXTENSION 16 % 11344
2020-09-17 21:11:20 FLAPS EXTENSION 13 % 11344
2020-09-17 21:11:20 FLAPS EXTENSION 10 % 11344
2020-09-17 21:11:20 FLAPS EXTENSION 8 % 11344
2020-09-17 21:11:21 FLAPS EXTENSION 6 % 11344
2020-09-17 21:11:21 FLAPS EXTENSION 3 % 11344
2020-09-17 21:11:21 FLAPS EXTENSION 2 % 11344
2020-09-17 21:11:21 FLAPS EXTENSION 0 % 11344
2020-09-17 21:14:53 STOPPING ENGINE 1 3344
 ACARS DATA
DATE IASGSALTITUDEFUEL CONSUMED OATFLIGHT STATUS
2020-09-17 19:50:591022031BOARDING
2020-09-17 19:51:590022031BOARDING
2020-09-17 19:52:591022131BOARDING
2020-09-17 19:53:591022131BOARDING
2020-09-17 19:54:590022231BOARDING
2020-09-17 19:55:591022331BOARDING
2020-09-17 19:56:591022431TAXI TO THE RWY
2020-09-17 19:57:590022531TAXI TO THE RWY
2020-09-17 19:58:590022631TAXI TO THE RWY
2020-09-17 19:59:594955147831CLIMBING
2020-09-17 20:00:5963693421031CLIMBING
2020-09-17 20:01:5953583661131CRUISE
2020-09-17 20:02:5962684301330CRUISE
2020-09-17 20:03:5959656121430CLIMBING
2020-09-17 20:04:5970776861630CRUISE
2020-09-17 20:05:5962689331729CLIMBING
2020-09-17 20:06:59657110881929CRUISE
2020-09-17 20:07:59707112982028CLIMBING
2020-09-17 20:08:59696915172128CRUISE
2020-09-17 20:09:599410114342328CRUISE
2020-09-17 20:10:5910611012792428DESCEND
2020-09-17 20:11:5910711111472629DESCEND
2020-09-17 20:12:5910510911092729CRUISE
2020-09-17 20:13:5910510910242929CRUISE
2020-09-17 20:14:591091159173029DESCEND
2020-09-17 20:15:591111197863130DESCEND
2020-09-17 20:16:591021097223330CRUISE
2020-09-17 20:17:591061106223430CRUISE
2020-09-17 20:18:59991046463630CRUISE
2020-09-17 20:19:591031076063730CRUISE
2020-09-17 20:20:591021065543930CRUISE
2020-09-17 20:21:591001045064030CRUISE
2020-09-17 20:22:59991044704230CRUISE
2020-09-17 20:23:591001044814330CRUISE
2020-09-17 20:24:59991034834530CRUISE
2020-09-17 20:25:59981025264630CRUISE
2020-09-17 20:26:59961006034730CLIMBING
2020-09-17 20:27:5995996584930CLIMBING
2020-09-17 20:28:5995987715030CRUISE
2020-09-17 20:29:5993998805229CRUISE
2020-09-17 20:30:5993989565329CRUISE
2020-09-17 20:31:59991039335529CRUISE
2020-09-17 20:32:59798311455629CLIMBING
2020-09-17 20:33:59939711625829CLIMBING
2020-09-17 20:34:59929712535928CRUISE
2020-09-17 20:35:59889514076028CLIMBING
2020-09-17 20:36:599510114806228CRUISE
2020-09-17 20:37:599910414426328CRUISE
2020-09-17 20:38:5910611213496528DESCEND
2020-09-17 20:39:5911111710426629DESCEND
2020-09-17 20:40:591061109796829CRUISE
2020-09-17 20:41:591071118826929CRUISE
2020-09-17 20:42:591151186267130DESCEND
2020-09-17 20:43:59991037967230DESCEND
2020-09-17 20:44:591001058757329CRUISE
2020-09-17 20:45:591051098267529CRUISE
2020-09-17 20:46:591161205307630DESCEND
2020-09-17 20:47:591021075667830CRUISE
2020-09-17 20:48:59991026537930CRUISE
2020-09-17 20:49:59971018308129CLIMBING
2020-09-17 20:50:59971088858229CRUISE
2020-09-17 20:51:591011149088429CRUISE
2020-09-17 20:52:599710910028529CRUISE
2020-09-17 20:53:599711110568729CRUISE
2020-09-17 20:54:599611011668829CRUISE
2020-09-17 20:55:599511012099029CRUISE
2020-09-17 20:56:599710712889128CRUISE
2020-09-17 20:57:599310614119228CRUISE
2020-09-17 20:58:599410414579428CRUISE
2020-09-17 20:59:5911612411229529DESCEND
2020-09-17 21:00:599710612529728CRUISE
2020-09-17 21:01:599811212299828CRUISE
2020-09-17 21:02:5998111141510028CRUISE
2020-09-17 21:03:5995108149510128CRUISE
2020-09-17 21:04:5993104158910328CRUISE
2020-09-17 21:05:598599165010427CRUISE
2020-09-17 21:06:598494167510528CLIMBING
2020-09-17 21:07:595666143810629CLIMBING
2020-09-17 21:08:596475115710730DESCEND
2020-09-17 21:09:59506236210832DESCEND
2020-09-17 21:10:59414834411032LANDED
2020-09-17 21:11:59161234311132TAXI TO THE GATE
2020-09-17 21:12:59171434311232TAXI TO THE GATE
2020-09-17 21:13:59141034411332TAXI TO THE GATE
2020-09-17 21:14:594034311432TAXI TO THE GATE